createdAt,value
2023-12-14T00:00:10.070Z,98623.90
2023-12-14T00:03:32.916Z,98627.04
2023-12-14T00:06:35.858Z,98628.40
2023-12-14T00:09:38.789Z,98630.28
2023-12-14T00:12:41.810Z,98634.41
2023-12-14T00:15:46.111Z,98640.46
2023-12-14T00:18:49.164Z,98640.01
2023-12-14T00:21:52.263Z,98641.14
2023-12-14T00:24:55.236Z,98644.86
2023-12-14T00:27:58.208Z,98645.69
2023-12-14T00:31:01.377Z,98653.16
2023-12-14T00:34:04.638Z,98652.98
2023-12-14T00:37:07.609Z,98666.52
2023-12-14T00:40:10.911Z,98670.65
2023-12-14T00:43:14.109Z,98670.77
2023-12-14T00:46:17.070Z,98673.92
2023-12-14T00:49:20.955Z,98677.92
2023-12-14T00:52:23.930Z,98683.36
2023-12-14T00:55:26.895Z,98688.50
2023-12-14T00:58:32.437Z,98694.52
2023-12-14T01:01:36.088Z,98694.63
2023-12-14T01:04:39.270Z,98702.36
2023-12-14T01:07:42.285Z,98705.52
2023-12-14T01:10:45.476Z,98708.17
2023-12-14T01:13:48.753Z,98712.39
2023-12-14T01:16:51.849Z,98714.64
2023-12-14T01:19:54.890Z,98718.51
2023-12-14T01:22:57.880Z,98722.38
2023-12-14T01:26:00.891Z,98720.20
2023-12-14T01:29:04.211Z,98723.28
2023-12-14T01:32:07.632Z,98718.84
2023-12-14T01:35:10.882Z,98721.46
2023-12-14T01:38:13.864Z,98726.23
2023-12-14T01:41:18.290Z,98723.98
2023-12-14T01:44:21.321Z,98723.59
2023-12-14T01:47:24.296Z,98725.39
2023-12-14T01:50:27.269Z,98725.56
2023-12-14T01:53:30.436Z,98727.55
2023-12-14T01:56:33.415Z,98725.98
2023-12-14T01:59:36.383Z,98727.19
2023-12-14T02:02:41.388Z,98732.00
2023-12-14T02:05:44.454Z,98737.70
2023-12-14T02:08:47.470Z,98739.99
2023-12-14T02:11:50.524Z,98738.46
2023-12-14T02:14:53.609Z,98742.19
2023-12-14T02:17:56.804Z,98748.24
2023-12-14T02:20:59.763Z,98748.27
2023-12-14T02:24:02.727Z,98752.45
2023-12-14T02:27:06.206Z,98756.61
2023-12-14T02:30:09.395Z,98761.42
2023-12-14T02:33:12.259Z,98763.60
2023-12-14T02:36:15.249Z,98770.50
2023-12-14T02:39:18.300Z,98778.61
2023-12-14T02:42:21.239Z,98783.14
2023-12-14T02:45:24.145Z,98785.34
2023-12-14T02:48:27.176Z,98789.42
2023-12-14T02:51:30.080Z,98794.70
2023-12-14T02:54:33.169Z,98794.52
2023-12-14T02:57:36.123Z,98792.27
2023-12-14T03:00:39.166Z,98802.55
2023-12-14T03:03:42.208Z,98804.70
2023-12-14T03:06:45.458Z,98806.02
2023-12-14T03:09:48.429Z,98811.95
2023-12-14T03:12:51.303Z,98814.20
2023-12-14T03:15:54.156Z,98812.20
2023-12-14T03:18:58.099Z,98818.50
2023-12-14T03:22:01.027Z,98820.28
2023-12-14T03:25:05.020Z,98826.27
2023-12-14T03:28:07.891Z,98830.31
2023-12-14T03:31:13.086Z,98835.40
2023-12-14T03:34:16.095Z,98837.98
2023-12-14T03:37:19.070Z,98842.64
2023-12-14T03:40:21.933Z,98845.81
2023-12-14T03:43:25.004Z,98849.43
2023-12-14T03:46:27.976Z,98849.66
2023-12-14T03:49:30.995Z,98856.86
2023-12-14T03:52:34.274Z,98857.39
2023-12-14T03:55:37.430Z,98864.11
2023-12-14T03:58:40.413Z,98860.72
2023-12-14T04:01:43.509Z,98864.22
2023-12-14T04:04:48.722Z,98863.67
2023-12-14T04:07:51.777Z,98866.58
2023-12-14T04:10:54.796Z,98873.63
2023-12-14T04:13:57.862Z,98881.47
2023-12-14T04:17:00.812Z,98887.73
2023-12-14T04:20:04.286Z,98887.27
2023-12-14T04:23:07.901Z,98891.46
2023-12-14T04:26:11.548Z,98890.08
2023-12-14T04:29:14.508Z,98896.87
2023-12-14T04:32:17.523Z,98896.19
2023-12-14T04:35:20.550Z,98903.98
2023-12-14T04:38:23.525Z,98915.11
2023-12-14T04:41:26.469Z,98921.02
2023-12-14T04:44:29.594Z,98920.95
2023-12-14T04:47:32.668Z,98924.33
2023-12-14T04:50:35.614Z,98926.91
2023-12-14T04:53:38.995Z,98929.27
2023-12-14T04:56:42.926Z,98926.49
2023-12-14T04:59:45.980Z,98926.14
2023-12-14T05:02:49.974Z,98932.48
2023-12-14T05:05:53.114Z,98938.16
2023-12-14T05:08:56.828Z,98944.45
2023-12-14T05:11:59.801Z,98948.63
2023-12-14T05:15:02.978Z,98955.62
2023-12-14T05:18:05.994Z,98964.46
2023-12-14T05:21:09.022Z,98969.38
2023-12-14T05:24:11.895Z,98972.58
2023-12-14T05:27:15.786Z,98976.73
2023-12-14T05:30:19.446Z,98982.49
2023-12-14T05:33:22.687Z,98988.50
2023-12-14T05:36:25.725Z,98991.75
2023-12-14T05:39:28.596Z,98995.40
2023-12-14T05:42:31.626Z,98999.51
2023-12-14T05:45:34.644Z,99003.04
2023-12-14T05:48:38.819Z,99006.63
2023-12-14T05:51:41.811Z,99010.59
2023-12-14T05:54:44.988Z,99017.02
2023-12-14T05:57:48.991Z,99027.96
2023-12-14T06:00:51.901Z,99031.71
2023-12-14T06:03:54.981Z,99038.60
2023-12-14T06:06:58.209Z,99043.77
2023-12-14T06:10:02.355Z,99048.59
2023-12-14T06:13:05.276Z,99051.55
2023-12-14T06:16:14.133Z,99061.80
2023-12-14T06:19:18.823Z,99061.98
2023-12-14T06:22:21.877Z,99065.88
2023-12-14T06:25:24.845Z,99066.37
2023-12-14T06:28:27.817Z,99071.56
2023-12-14T06:31:30.785Z,99070.39
2023-12-14T06:34:33.706Z,99074.42
2023-12-14T06:37:37.100Z,99076.21
2023-12-14T06:40:40.130Z,99084.79
2023-12-14T06:43:43.138Z,99087.86
2023-12-14T06:46:46.147Z,99093.66
2023-12-14T06:49:49.589Z,99099.27
2023-12-14T06:52:52.761Z,99104.57
2023-12-14T06:55:55.718Z,99110.58
2023-12-14T06:58:58.782Z,99113.22
2023-12-14T07:02:01.713Z,99112.48
2023-12-14T07:05:05.143Z,99116.46
2023-12-14T07:08:08.364Z,99126.14
2023-12-14T07:11:11.967Z,99130.49
2023-12-14T07:14:16.436Z,99133.52
2023-12-14T07:17:20.210Z,99137.38
2023-12-14T07:20:23.425Z,99146.11
2023-12-14T07:23:26.443Z,99145.95
2023-12-14T07:26:29.591Z,99148.65
2023-12-14T07:29:32.583Z,99155.56
2023-12-14T07:32:36.066Z,99161.42
2023-12-14T07:35:39.352Z,99166.63
2023-12-14T07:38:42.315Z,99172.15
2023-12-14T07:41:45.388Z,99181.77
2023-12-14T07:44:48.365Z,99186.06
2023-12-14T07:47:51.425Z,99194.02
2023-12-14T07:50:55.373Z,99204.13
2023-12-14T07:53:58.200Z,99210.61
2023-12-14T07:57:01.275Z,99215.46
2023-12-14T08:00:05.376Z,99225.84
2023-12-14T08:03:08.268Z,99228.31
2023-12-14T08:06:12.979Z,99237.68
2023-12-14T08:09:16.755Z,99241.43
2023-12-14T08:12:19.723Z,99247.34
2023-12-14T08:15:22.585Z,99251.67
2023-12-14T08:18:25.644Z,99260.52
2023-12-14T08:21:28.734Z,99267.65
2023-12-14T08:24:31.705Z,99271.55
2023-12-14T08:27:34.786Z,99279.78
2023-12-14T08:30:39.437Z,99280.94
2023-12-14T08:33:46.436Z,99284.16
2023-12-14T08:36:51.270Z,99286.54
2023-12-14T08:39:56.197Z,99292.30
2023-12-14T08:42:59.578Z,99294.98
2023-12-14T08:46:02.560Z,99303.68
2023-12-14T08:49:05.564Z,99306.83
2023-12-14T08:52:08.998Z,99319.74
2023-12-14T08:55:11.978Z,99316.50
2023-12-14T08:58:15.152Z,99320.50
2023-12-14T09:01:22.620Z,99324.27
2023-12-14T09:04:25.863Z,99334.95
2023-12-14T09:07:28.651Z,99343.23
2023-12-14T09:10:31.939Z,99351.63
2023-12-14T09:13:35.051Z,99360.01
2023-12-14T09:16:39.041Z,99368.40
2023-12-14T09:19:42.140Z,99372.95
2023-12-14T09:22:45.070Z,99380.25
2023-12-14T09:25:48.415Z,99383.32
2023-12-14T09:28:51.592Z,99385.23
2023-12-14T09:31:54.602Z,99388.08
2023-12-14T09:34:58.108Z,99390.68
2023-12-14T09:38:01.097Z,99391.50
2023-12-14T09:41:04.382Z,99397.49
2023-12-14T09:44:08.528Z,99398.27
2023-12-14T09:47:11.770Z,99398.77
2023-12-14T09:50:16.326Z,99400.05
2023-12-14T09:53:19.921Z,99401.95
2023-12-14T09:56:23.018Z,99408.39
2023-12-14T09:59:26.053Z,99409.02
2023-12-14T10:02:29.325Z,99414.98
2023-12-14T10:05:32.433Z,99418.05
2023-12-14T10:08:35.336Z,99421.98
2023-12-14T10:11:38.275Z,99423.81
2023-12-14T10:14:41.210Z,99420.38
2023-12-14T10:17:44.178Z,99423.46
2023-12-14T10:20:48.308Z,99427.00
2023-12-14T10:23:51.236Z,99430.73
2023-12-14T10:26:54.065Z,99430.58
2023-12-14T10:29:57.457Z,99428.16
2023-12-14T10:33:00.397Z,99431.90
2023-12-14T10:36:09.989Z,99437.14
2023-12-14T10:39:16.971Z,99440.02
2023-12-14T10:42:22.541Z,99448.61
2023-12-14T10:45:28.856Z,99449.11
2023-12-14T10:48:33.083Z,99453.17
2023-12-14T10:51:38.485Z,99452.65
2023-12-14T10:54:42.640Z,99453.77
2023-12-14T10:57:47.599Z,99455.41
2023-12-14T11:01:02.819Z,99462.52
2023-12-14T11:04:07.320Z,99466.00
2023-12-14T11:07:12.077Z,99470.13
2023-12-14T11:10:15.550Z,99475.13
2023-12-14T11:13:19.128Z,99477.93
2023-12-14T11:16:27.596Z,99489.20
2023-12-14T11:19:31.576Z,99490.27
2023-12-14T11:22:34.617Z,99494.73
2023-12-14T11:25:44.778Z,99504.28
2023-12-14T11:28:50.943Z,99502.50
2023-12-14T11:31:53.938Z,99505.41
2023-12-14T11:34:56.874Z,99513.02
2023-12-14T11:38:01.460Z,99510.48
2023-12-14T11:41:04.637Z,99507.98
2023-12-14T11:44:08.398Z,99513.11
2023-12-14T11:47:11.403Z,99514.46
2023-12-14T11:50:15.488Z,99520.33
2023-12-14T11:53:19.248Z,99523.34
2023-12-14T11:56:24.442Z,99527.98
2023-12-14T11:59:27.612Z,99530.73
2023-12-14T12:02:30.516Z,99537.75
2023-12-14T12:05:37.350Z,99541.01
2023-12-14T12:08:43.980Z,99544.13
2023-12-14T12:11:47.185Z,99539.43
2023-12-14T12:14:53.853Z,99543.17
2023-12-14T12:17:56.879Z,99545.68
2023-12-14T12:21:05.333Z,99548.26
2023-12-14T12:24:18.539Z,99552.11
2023-12-14T12:27:29.570Z,99552.40
2023-12-14T12:30:32.587Z,99558.67
2023-12-14T12:33:39.395Z,99561.20
2023-12-14T12:36:43.090Z,99564.08
2023-12-14T12:39:45.869Z,99573.30
2023-12-14T12:42:49.715Z,99575.72
2023-12-14T12:45:52.635Z,99579.33
2023-12-14T12:48:55.644Z,99581.90
2023-12-14T12:51:58.608Z,99582.08
2023-12-14T12:55:01.603Z,99590.17
2023-12-14T12:58:08.181Z,99593.77
2023-12-14T13:01:11.042Z,99593.83
2023-12-14T13:04:21.132Z,99598.36
2023-12-14T13:07:24.211Z,99604.35
2023-12-14T13:10:31.918Z,99608.46
2023-12-14T13:13:35.892Z,99616.65
2023-12-14T13:16:39.454Z,99615.31
2023-12-14T13:19:42.467Z,99619.64
2023-12-14T13:22:45.363Z,99630.23
2023-12-14T13:25:48.365Z,99635.05
2023-12-14T13:28:52.161Z,99634.00
2023-12-14T13:31:55.149Z,99639.44
2023-12-14T13:34:57.933Z,99646.81
2023-12-14T13:38:01.175Z,99649.38
2023-12-14T13:41:04.457Z,99655.85
2023-12-14T13:44:07.491Z,99662.04
2023-12-14T13:47:10.404Z,99671.91
2023-12-14T13:50:13.479Z,99680.50
2023-12-14T13:53:17.845Z,99680.59
2023-12-14T13:56:21.861Z,99688.30
2023-12-14T13:59:25.003Z,99694.39
2023-12-14T14:02:29.995Z,99701.38
2023-12-14T14:05:33.256Z,99707.23
2023-12-14T14:08:36.660Z,99713.69
2023-12-14T14:11:42.598Z,99720.98
2023-12-14T14:14:45.968Z,99731.02
2023-12-14T14:17:53.903Z,99734.70
2023-12-14T14:20:56.872Z,99734.50
2023-12-14T14:23:59.898Z,99740.46
2023-12-14T14:27:02.837Z,99740.29
2023-12-14T14:30:06.161Z,99747.53
2023-12-14T14:33:09.245Z,99749.59
2023-12-14T14:36:12.236Z,99753.41
2023-12-14T14:39:16.396Z,99754.30
2023-12-14T14:42:21.236Z,99758.61
2023-12-14T14:45:24.245Z,99768.52
2023-12-14T14:48:27.128Z,99776.18
2023-12-14T14:51:31.191Z,99787.61
2023-12-14T14:54:34.135Z,99795.33
2023-12-14T14:57:36.918Z,99801.45
2023-12-14T15:00:42.629Z,99809.59
2023-12-14T15:03:45.585Z,99818.25
2023-12-14T15:06:49.501Z,99827.70
2023-12-14T15:09:52.340Z,99829.01
2023-12-14T15:12:55.205Z,99837.58
2023-12-14T15:15:58.100Z,99840.09
2023-12-14T15:19:01.052Z,99847.80
2023-12-14T15:22:03.953Z,99856.16
2023-12-14T15:25:06.973Z,99857.30
2023-12-14T15:28:09.950Z,99861.02
2023-12-14T15:31:12.961Z,99864.45
2023-12-14T15:34:15.957Z,99870.36
2023-12-14T15:37:18.956Z,99880.73
2023-12-14T15:40:21.957Z,99888.95
2023-12-14T15:43:24.906Z,99896.34
2023-12-14T15:46:27.881Z,99904.34
2023-12-14T15:49:30.761Z,99904.45
2023-12-14T15:52:33.921Z,99917.03
2023-12-14T15:55:37.588Z,99922.45
2023-12-14T15:58:40.550Z,99924.34
2023-12-14T16:01:46.464Z,99924.12
2023-12-14T16:04:51.205Z,99923.55
2023-12-14T16:07:54.251Z,99931.92
2023-12-14T16:10:57.482Z,99940.51
2023-12-14T16:14:00.462Z,99936.45
2023-12-14T16:17:03.751Z,99946.70
2023-12-14T16:20:07.669Z,99951.04
2023-12-14T16:23:11.426Z,99953.96
2023-12-14T16:26:14.712Z,99960.16
2023-12-14T16:29:17.766Z,99963.50
2023-12-14T16:32:20.974Z,99964.79
2023-12-14T16:35:24.096Z,99967.86
2023-12-14T16:38:27.082Z,99966.59
2023-12-14T16:41:30.273Z,99970.98
2023-12-14T16:44:33.757Z,99966.68
2023-12-14T16:47:36.547Z,99973.08
2023-12-14T16:50:39.852Z,99976.27
2023-12-14T16:53:43.652Z,99985.89
2023-12-14T16:56:47.531Z,99991.21
2023-12-14T16:59:50.393Z,99993.52
2023-12-14T17:02:53.362Z,99995.33
2023-12-14T17:05:56.459Z,100001.20
2023-12-14T17:08:59.606Z,100001.98
2023-12-14T17:12:02.458Z,100007.60
2023-12-14T17:15:06.700Z,100016.09
2023-12-14T17:18:10.173Z,100018.48
2023-12-14T17:21:23.197Z,100026.84
2023-12-14T17:24:26.057Z,100033.30
2023-12-14T17:27:30.188Z,100032.48
2023-12-14T17:30:33.855Z,100041.02
2023-12-14T17:33:37.880Z,100048.84
2023-12-14T17:36:40.976Z,100056.38
2023-12-14T17:39:45.296Z,100061.66
2023-12-14T17:42:48.198Z,100068.50
2023-12-14T17:45:51.182Z,100071.27
2023-12-14T17:48:54.309Z,100076.05
2023-12-14T17:51:57.169Z,100077.09
2023-12-14T17:55:02.001Z,100084.59
2023-12-14T17:58:06.330Z,100089.80
2023-12-14T18:01:09.229Z,100094.16
2023-12-14T18:04:12.302Z,100090.98
2023-12-14T18:07:15.586Z,100102.11
2023-12-14T18:10:18.642Z,100107.25
2023-12-14T18:13:21.502Z,100113.98
2023-12-14T18:16:28.004Z,100122.49
2023-12-14T18:19:31.320Z,100125.73
2023-12-14T18:22:34.383Z,100134.02
2023-12-14T18:25:37.712Z,100140.81
2023-12-14T18:28:46.431Z,100147.46
2023-12-14T18:31:49.395Z,100157.61
2023-12-14T18:34:52.411Z,100161.91
2023-12-14T18:37:55.478Z,100168.48
2023-12-14T18:40:58.190Z,100171.73
2023-12-14T18:44:01.134Z,100174.96
2023-12-14T18:47:04.463Z,100174.42
2023-12-14T18:50:07.894Z,100175.48
2023-12-14T18:53:11.293Z,100176.55
2023-12-14T18:56:14.154Z,100186.45
2023-12-14T18:59:17.262Z,100192.95
2023-12-14T19:02:26.301Z,100199.66
2023-12-14T19:05:29.501Z,100209.46
2023-12-14T19:08:32.657Z,100216.73
2023-12-14T19:11:35.640Z,100218.14
2023-12-14T19:14:38.444Z,100219.27
2023-12-14T19:17:42.021Z,100221.28
2023-12-14T19:20:46.347Z,100219.20
2023-12-14T19:23:49.328Z,100222.49
2023-12-14T19:26:55.268Z,100224.63
2023-12-14T19:29:58.737Z,100226.88
2023-12-14T19:33:01.689Z,100235.39
2023-12-14T19:36:12.875Z,100238.10
2023-12-14T19:39:15.844Z,100237.40
2023-12-14T19:42:18.683Z,100249.50
2023-12-14T19:45:21.687Z,100253.73
2023-12-14T19:48:26.024Z,100258.89
2023-12-14T19:51:30.704Z,100265.14
2023-12-14T19:54:33.584Z,100276.41
2023-12-14T19:57:37.292Z,100286.73
2023-12-14T20:00:40.460Z,100294.30
2023-12-14T20:03:43.444Z,100298.49
2023-12-14T20:06:46.401Z,100303.89
2023-12-14T20:09:57.816Z,100312.21
2023-12-14T20:13:10.534Z,100322.50
2023-12-14T20:16:18.635Z,100323.58
2023-12-14T20:19:21.607Z,100327.69
2023-12-14T20:22:25.516Z,100334.69
2023-12-14T20:25:28.591Z,100340.27
2023-12-14T20:28:31.855Z,100347.27
2023-12-14T20:31:36.356Z,100358.25
2023-12-14T20:34:39.637Z,100361.98
2023-12-14T20:37:42.459Z,100371.10
2023-12-14T20:40:45.396Z,100375.34
2023-12-14T20:43:48.396Z,100379.57
2023-12-14T20:46:51.390Z,100381.39
2023-12-14T20:49:54.417Z,100387.48
2023-12-14T20:52:57.407Z,100387.23
2023-12-14T20:56:00.775Z,100387.70
2023-12-14T20:59:03.678Z,100394.80
2023-12-14T21:02:08.041Z,100397.03
2023-12-14T21:05:11.135Z,100402.51
2023-12-14T21:08:14.136Z,100408.42
2023-12-14T21:11:17.693Z,100408.28
2023-12-14T21:14:21.924Z,100410.04
2023-12-14T21:17:24.861Z,100418.58
2023-12-14T21:20:30.315Z,100415.65
2023-12-14T21:23:33.813Z,100413.61
2023-12-14T21:26:38.466Z,100416.80
2023-12-14T21:29:42.044Z,100418.42
2023-12-14T21:32:45.511Z,100421.41
2023-12-14T21:35:48.593Z,100418.78
2023-12-14T21:38:51.483Z,100419.86
2023-12-14T21:41:54.441Z,100419.85
2023-12-14T21:44:57.313Z,100415.66
2023-12-14T21:48:00.364Z,100415.42
2023-12-14T21:51:03.665Z,100419.52
2023-12-14T21:54:06.535Z,100425.17
2023-12-14T21:57:09.412Z,100436.08
2023-12-14T22:00:12.700Z,100442.46
2023-12-14T22:03:15.579Z,100452.95
2023-12-14T22:06:18.608Z,100460.34
2023-12-14T22:09:21.804Z,100466.20
2023-12-14T22:12:24.915Z,100464.34
2023-12-14T22:15:28.157Z,100470.28
2023-12-14T22:18:31.247Z,100478.00
2023-12-14T22:21:34.316Z,100479.62
2023-12-14T22:24:37.279Z,100473.90
2023-12-14T22:27:40.257Z,100474.07
2023-12-14T22:30:43.370Z,100474.73
2023-12-14T22:33:46.468Z,100475.01
2023-12-14T22:36:50.315Z,100480.84
2023-12-14T22:39:53.679Z,100486.68
2023-12-14T22:42:56.648Z,100492.61
2023-12-14T22:45:59.522Z,100493.40
2023-12-14T22:49:02.555Z,100498.60
2023-12-14T22:52:05.996Z,100490.50
2023-12-14T22:55:13.346Z,100496.91
2023-12-14T22:58:16.218Z,100505.59
2023-12-14T23:01:35.980Z,100509.63
2023-12-14T23:04:40.587Z,100513.84
2023-12-14T23:07:43.507Z,100512.89
2023-12-14T23:10:46.545Z,100519.03
2023-12-14T23:13:49.894Z,100519.03
2023-12-14T23:16:52.954Z,100523.02
2023-12-14T23:19:55.873Z,100530.10
2023-12-14T23:22:58.855Z,100536.64
2023-12-14T23:26:01.710Z,100538.55
2023-12-14T23:29:04.916Z,100540.78
2023-12-14T23:32:08.881Z,100539.39
2023-12-14T23:35:11.984Z,100541.38
2023-12-14T23:38:15.189Z,100546.46
2023-12-14T23:41:18.212Z,100551.90
2023-12-14T23:44:21.413Z,100550.40
2023-12-14T23:47:24.483Z,100555.01
2023-12-14T23:50:27.472Z,100559.92
2023-12-14T23:53:30.663Z,100562.89
2023-12-14T23:56:33.778Z,100571.03
2023-12-14T23:59:36.730Z,100578.52
